sensor_id;sensor_type;location;lat;lon;timestamp;pressure;altitude;pressure_sealevel;temperature
69590;BMP180;56792;50.644;17.984;2022-10-14T00:01:35;99922.20;;;6.70
69590;BMP180;56792;50.644;17.984;2022-10-14T00:04:08;99924.00;;;6.70
69590;BMP180;56792;50.644;17.984;2022-10-14T00:06:40;99923.40;;;6.70
69590;BMP180;56792;50.644;17.984;2022-10-14T00:09:13;99922.20;;;6.70
69590;BMP180;56792;50.644;17.984;2022-10-14T00:11:45;99920.80;;;6.70
69590;BMP180;56792;50.644;17.984;2022-10-14T00:14:20;99924.00;;;6.72
69590;BMP180;56792;50.644;17.984;2022-10-14T00:16:56;99919.20;;;6.70
69590;BMP180;56792;50.644;17.984;2022-10-14T00:19:28;99923.00;;;6.72
69590;BMP180;56792;50.644;17.984;2022-10-14T00:22:00;99922.80;;;6.80
69590;BMP180;56792;50.644;17.984;2022-10-14T00:24:32;99923.60;;;6.78
69590;BMP180;56792;50.644;17.984;2022-10-14T00:27:04;99919.20;;;6.76
69590;BMP180;56792;50.644;17.984;2022-10-14T00:29:37;99910.60;;;6.80
69590;BMP180;56792;50.644;17.984;2022-10-14T00:32:09;99904.20;;;6.80
69590;BMP180;56792;50.644;17.984;2022-10-14T00:34:42;99904.80;;;6.80
69590;BMP180;56792;50.644;17.984;2022-10-14T00:37:14;99907.60;;;6.80
69590;BMP180;56792;50.644;17.984;2022-10-14T00:39:46;99904.80;;;6.80
69590;BMP180;56792;50.644;17.984;2022-10-14T00:42:19;99903.20;;;6.78
69590;BMP180;56792;50.644;17.984;2022-10-14T00:45:14;99898.40;;;6.80
69590;BMP180;56792;50.644;17.984;2022-10-14T00:47:48;99898.20;;;6.80
69590;BMP180;56792;50.644;17.984;2022-10-14T00:50:23;99894.60;;;6.80
69590;BMP180;56792;50.644;17.984;2022-10-14T00:52:55;99892.80;;;6.80
69590;BMP180;56792;50.644;17.984;2022-10-14T00:55:29;99889.60;;;6.80
69590;BMP180;56792;50.644;17.984;2022-10-14T00:58:03;99889.40;;;6.80
69590;BMP180;56792;50.644;17.984;2022-10-14T01:00:35;99890.20;;;6.80
69590;BMP180;56792;50.644;17.984;2022-10-14T01:03:19;99885.80;;;6.80
69590;BMP180;56792;50.644;17.984;2022-10-14T01:06:02;99884.60;;;6.80
69590;BMP180;56792;50.644;17.984;2022-10-14T01:08:46;99879.20;;;6.80
69590;BMP180;56792;50.644;17.984;2022-10-14T01:11:30;99881.80;;;6.80
69590;BMP180;56792;50.644;17.984;2022-10-14T01:14:14;99879.80;;;6.80
69590;BMP180;56792;50.644;17.984;2022-10-14T01:16:58;99872.60;;;6.80
69590;BMP180;56792;50.644;17.984;2022-10-14T01:20:00;99874.40;;;6.88
69590;BMP180;56792;50.644;17.984;2022-10-14T01:22:42;99878.00;;;6.88
69590;BMP180;56792;50.644;17.984;2022-10-14T01:25:27;99876.20;;;6.90
69590;BMP180;56792;50.644;17.984;2022-10-14T01:28:20;99874.40;;;6.90
69590;BMP180;56792;50.644;17.984;2022-10-14T01:31:01;99872.80;;;6.90
69590;BMP180;56792;50.644;17.984;2022-10-14T01:33:39;99868.60;;;6.90
69590;BMP180;56792;50.644;17.984;2022-10-14T01:36:19;99866.80;;;6.90
69590;BMP180;56792;50.644;17.984;2022-10-14T01:38:59;99862.20;;;6.90
69590;BMP180;56792;50.644;17.984;2022-10-14T01:41:35;99862.00;;;6.90
69590;BMP180;56792;50.644;17.984;2022-10-14T01:44:11;99862.80;;;6.90
69590;BMP180;56792;50.644;17.984;2022-10-14T01:46:52;99852.40;;;6.90
69590;BMP180;56792;50.644;17.984;2022-10-14T01:49:31;99857.00;;;6.90
69590;BMP180;56792;50.644;17.984;2022-10-14T01:52:10;99851.60;;;6.90
69590;BMP180;56792;50.644;17.984;2022-10-14T01:54:49;99848.40;;;6.90
69590;BMP180;56792;50.644;17.984;2022-10-14T01:57:26;99845.60;;;6.90
69590;BMP180;56792;50.644;17.984;2022-10-14T01:59:59;99846.60;;;6.90
69590;BMP180;56792;50.644;17.984;2022-10-14T02:02:44;99846.40;;;6.90
69590;BMP180;56792;50.644;17.984;2022-10-14T02:05:23;99846.00;;;6.86
69590;BMP180;56792;50.644;17.984;2022-10-14T02:08:07;99848.60;;;6.88
69590;BMP180;56792;50.644;17.984;2022-10-14T02:10:59;99852.00;;;6.86
69590;BMP180;56792;50.644;17.984;2022-10-14T02:13:54;99850.00;;;6.88
69590;BMP180;56792;50.644;17.984;2022-10-14T02:16:39;99848.40;;;6.82
69590;BMP180;56792;50.644;17.984;2022-10-14T02:19:26;99846.00;;;6.88
69590;BMP180;56792;50.644;17.984;2022-10-14T02:22:05;99842.60;;;6.80
69590;BMP180;56792;50.644;17.984;2022-10-14T02:24:45;99842.40;;;6.82
69590;BMP180;56792;50.644;17.984;2022-10-14T02:27:23;99843.00;;;6.90
69590;BMP180;56792;50.644;17.984;2022-10-14T02:30:00;99848.60;;;6.80
69590;BMP180;56792;50.644;17.984;2022-10-14T02:32:34;99850.60;;;6.80
69590;BMP180;56792;50.644;17.984;2022-10-14T02:35:10;99849.20;;;6.80
69590;BMP180;56792;50.644;17.984;2022-10-14T02:37:45;99845.60;;;6.80
69590;BMP180;56792;50.644;17.984;2022-10-14T02:40:26;99843.80;;;6.80
69590;BMP180;56792;50.644;17.984;2022-10-14T02:43:00;99841.20;;;6.70
69590;BMP180;56792;50.644;17.984;2022-10-14T02:45:32;99841.80;;;6.70
69590;BMP180;56792;50.644;17.984;2022-10-14T02:48:05;99838.80;;;6.70
69590;BMP180;56792;50.644;17.984;2022-10-14T02:50:37;99839.60;;;6.70
69590;BMP180;56792;50.644;17.984;2022-10-14T02:53:11;99837.20;;;6.70
69590;BMP180;56792;50.644;17.984;2022-10-14T02:55:47;99834.60;;;6.70
69590;BMP180;56792;50.644;17.984;2022-10-14T02:58:19;99830.80;;;6.70
69590;BMP180;56792;50.644;17.984;2022-10-14T03:00:52;99828.00;;;6.70
69590;BMP180;56792;50.644;17.984;2022-10-14T03:03:24;99825.00;;;6.62
69590;BMP180;56792;50.644;17.984;2022-10-14T03:05:56;99830.60;;;6.62
69590;BMP180;56792;50.644;17.984;2022-10-14T03:08:28;99836.60;;;6.60
69590;BMP180;56792;50.644;17.984;2022-10-14T03:11:01;99841.00;;;6.60
69590;BMP180;56792;50.644;17.984;2022-10-14T03:13:33;99843.00;;;6.60
69590;BMP180;56792;50.644;17.984;2022-10-14T03:16:06;99840.60;;;6.60
69590;BMP180;56792;50.644;17.984;2022-10-14T03:18:42;99838.40;;;6.60
69590;BMP180;56792;50.644;17.984;2022-10-14T03:21:24;99842.20;;;6.60
69590;BMP180;56792;50.644;17.984;2022-10-14T03:23:57;99845.00;;;6.58
69590;BMP180;56792;50.644;17.984;2022-10-14T03:26:35;99847.40;;;6.50
69590;BMP180;56792;50.644;17.984;2022-10-14T03:29:07;99845.00;;;6.50
69590;BMP180;56792;50.644;17.984;2022-10-14T03:32:12;99844.80;;;6.50
69590;BMP180;56792;50.644;17.984;2022-10-14T03:35:22;99840.80;;;6.50
69590;BMP180;56792;50.644;17.984;2022-10-14T03:37:56;99842.80;;;6.44
69590;BMP180;56792;50.644;17.984;2022-10-14T03:40:33;99840.20;;;6.44
69590;BMP180;56792;50.644;17.984;2022-10-14T03:43:06;99840.60;;;6.44
69590;BMP180;56792;50.644;17.984;2022-10-14T03:45:47;99845.20;;;6.40
69590;BMP180;56792;50.644;17.984;2022-10-14T03:48:21;99846.80;;;6.40
69590;BMP180;56792;50.644;17.984;2022-10-14T03:50:53;99849.80;;;6.40
69590;BMP180;56792;50.644;17.984;2022-10-14T03:53:26;99844.20;;;6.40
69590;BMP180;56792;50.644;17.984;2022-10-14T03:55:58;99845.40;;;6.50
69590;BMP180;56792;50.644;17.984;2022-10-14T03:58:31;99841.00;;;6.50
69590;BMP180;56792;50.644;17.984;2022-10-14T04:01:07;99846.20;;;6.52
69590;BMP180;56792;50.644;17.984;2022-10-14T04:03:58;99838.80;;;6.60
69590;BMP180;56792;50.644;17.984;2022-10-14T04:06:30;99835.80;;;6.60
69590;BMP180;56792;50.644;17.984;2022-10-14T04:09:03;99829.80;;;6.64
69590;BMP180;56792;50.644;17.984;2022-10-14T04:11:39;99824.20;;;6.70
69590;BMP180;56792;50.644;17.984;2022-10-14T04:14:25;99826.80;;;6.70
69590;BMP180;56792;50.644;17.984;2022-10-14T04:16:57;99824.00;;;6.70
69590;BMP180;56792;50.644;17.984;2022-10-14T04:19:29;99822.80;;;6.70
69590;BMP180;56792;50.644;17.984;2022-10-14T04:22:01;99815.80;;;6.70
69590;BMP180;56792;50.644;17.984;2022-10-14T04:24:36;99809.40;;;6.70
69590;BMP180;56792;50.644;17.984;2022-10-14T04:27:08;99805.60;;;6.70
69590;BMP180;56792;50.644;17.984;2022-10-14T04:29:48;99798.60;;;6.70
69590;BMP180;56792;50.644;17.984;2022-10-14T04:32:28;99795.60;;;6.70
69590;BMP180;56792;50.644;17.984;2022-10-14T04:35:00;99796.00;;;6.70
69590;BMP180;56792;50.644;17.984;2022-10-14T04:37:33;99788.00;;;6.70
69590;BMP180;56792;50.644;17.984;2022-10-14T04:40:23;99785.80;;;6.70
69590;BMP180;56792;50.644;17.984;2022-10-14T04:42:59;99786.40;;;6.70
69590;BMP180;56792;50.644;17.984;2022-10-14T04:45:35;99790.20;;;6.70
69590;BMP180;56792;50.644;17.984;2022-10-14T04:48:08;99792.20;;;6.70
69590;BMP180;56792;50.644;17.984;2022-10-14T04:50:44;99795.80;;;6.70
69590;BMP180;56792;50.644;17.984;2022-10-14T04:53:30;99797.80;;;6.70
69590;BMP180;56792;50.644;17.984;2022-10-14T04:56:20;99793.40;;;6.70
69590;BMP180;56792;50.644;17.984;2022-10-14T04:58:58;99797.60;;;6.74
69590;BMP180;56792;50.644;17.984;2022-10-14T05:01:46;99795.80;;;6.80
69590;BMP180;56792;50.644;17.984;2022-10-14T05:04:18;99793.20;;;6.80
69590;BMP180;56792;50.644;17.984;2022-10-14T05:06:51;99797.20;;;6.80
69590;BMP180;56792;50.644;17.984;2022-10-14T05:09:24;99797.20;;;6.80
69590;BMP180;56792;50.644;17.984;2022-10-14T05:11:56;99790.00;;;6.80
69590;BMP180;56792;50.644;17.984;2022-10-14T05:14:35;99786.80;;;6.80
69590;BMP180;56792;50.644;17.984;2022-10-14T05:17:25;99788.80;;;6.80
69590;BMP180;56792;50.644;17.984;2022-10-14T05:19:58;99791.80;;;6.80
69590;BMP180;56792;50.644;17.984;2022-10-14T05:22:30;99790.60;;;6.70
69590;BMP180;56792;50.644;17.984;2022-10-14T05:25:02;99790.80;;;6.70
69590;BMP180;56792;50.644;17.984;2022-10-14T05:27:36;99783.60;;;6.70
69590;BMP180;56792;50.644;17.984;2022-10-14T05:30:12;99781.80;;;6.70
69590;BMP180;56792;50.644;17.984;2022-10-14T05:32:48;99781.20;;;6.70
69590;BMP180;56792;50.644;17.984;2022-10-14T05:35:21;99782.60;;;6.68
69590;BMP180;56792;50.644;17.984;2022-10-14T05:37:57;99786.40;;;6.60
69590;BMP180;56792;50.644;17.984;2022-10-14T05:40:29;99780.40;;;6.66
69590;BMP180;56792;50.644;17.984;2022-10-14T05:43:01;99782.60;;;6.68
69590;BMP180;56792;50.644;17.984;2022-10-14T05:45:34;99783.40;;;6.60
69590;BMP180;56792;50.644;17.984;2022-10-14T05:48:07;99781.60;;;6.60
69590;BMP180;56792;50.644;17.984;2022-10-14T05:50:39;99781.00;;;6.62
69590;BMP180;56792;50.644;17.984;2022-10-14T05:53:15;99777.00;;;6.60
69590;BMP180;56792;50.644;17.984;2022-10-14T05:55:50;99775.80;;;6.66
69590;BMP180;56792;50.644;17.984;2022-10-14T05:58:25;99777.80;;;6.70
69590;BMP180;56792;50.644;17.984;2022-10-14T06:01:02;99773.20;;;6.70
69590;BMP180;56792;50.644;17.984;2022-10-14T06:03:35;99770.00;;;6.80
69590;BMP180;56792;50.644;17.984;2022-10-14T06:06:09;99772.80;;;6.80
69590;BMP180;56792;50.644;17.984;2022-10-14T06:08:42;99778.80;;;6.90
69590;BMP180;56792;50.644;17.984;2022-10-14T06:11:14;99783.20;;;6.90
69590;BMP180;56792;50.644;17.984;2022-10-14T06:13:48;99787.00;;;6.98
69590;BMP180;56792;50.644;17.984;2022-10-14T06:16:20;99781.00;;;7.00
69590;BMP180;56792;50.644;17.984;2022-10-14T06:18:52;99778.00;;;7.10
69590;BMP180;56792;50.644;17.984;2022-10-14T06:21:25;99784.00;;;7.12
69590;BMP180;56792;50.644;17.984;2022-10-14T06:23:57;99787.20;;;7.22
69590;BMP180;56792;50.644;17.984;2022-10-14T06:26:29;99789.60;;;7.30
69590;BMP180;56792;50.644;17.984;2022-10-14T06:29:02;99783.00;;;7.40
69590;BMP180;56792;50.644;17.984;2022-10-14T06:31:34;99779.00;;;7.60
69590;BMP180;56792;50.644;17.984;2022-10-14T06:34:09;99785.60;;;7.74
69590;BMP180;56792;50.644;17.984;2022-10-14T06:36:42;99788.40;;;8.00
69590;BMP180;56792;50.644;17.984;2022-10-14T06:39:14;99790.60;;;8.24
69590;BMP180;56792;50.644;17.984;2022-10-14T06:41:46;99787.20;;;8.52
69590;BMP180;56792;50.644;17.984;2022-10-14T06:44:22;99785.40;;;8.88
69590;BMP180;56792;50.644;17.984;2022-10-14T06:46:54;99789.80;;;9.14
69590;BMP180;56792;50.644;17.984;2022-10-14T06:49:26;99788.00;;;9.40
69590;BMP180;56792;50.644;17.984;2022-10-14T06:51:59;99778.80;;;9.70
69590;BMP180;56792;50.644;17.984;2022-10-14T06:54:32;99782.20;;;9.90
69590;BMP180;56792;50.644;17.984;2022-10-14T06:57:05;99785.80;;;10.10
69590;BMP180;56792;50.644;17.984;2022-10-14T06:59:37;99789.00;;;10.30
69590;BMP180;56792;50.644;17.984;2022-10-14T07:02:09;99798.40;;;10.52
69590;BMP180;56792;50.644;17.984;2022-10-14T07:04:42;99794.20;;;10.72
69590;BMP180;56792;50.644;17.984;2022-10-14T07:07:14;99798.40;;;10.80
69590;BMP180;56792;50.644;17.984;2022-10-14T07:09:47;99805.40;;;10.96
69590;BMP180;56792;50.644;17.984;2022-10-14T07:12:19;99803.40;;;11.12
69590;BMP180;56792;50.644;17.984;2022-10-14T07:14:51;99802.60;;;11.20
69590;BMP180;56792;50.644;17.984;2022-10-14T07:17:23;99805.60;;;11.40
69590;BMP180;56792;50.644;17.984;2022-10-14T07:19:55;99810.80;;;11.58
69590;BMP180;56792;50.644;17.984;2022-10-14T07:22:28;99802.80;;;11.70
69590;BMP180;56792;50.644;17.984;2022-10-14T07:25:00;99807.40;;;11.90
69590;BMP180;56792;50.644;17.984;2022-10-14T07:27:34;99808.80;;;12.12
69590;BMP180;56792;50.644;17.984;2022-10-14T07:30:08;99803.80;;;12.30
69590;BMP180;56792;50.644;17.984;2022-10-14T07:32:41;99802.80;;;12.50
69590;BMP180;56792;50.644;17.984;2022-10-14T07:35:14;99810.80;;;12.70
69590;BMP180;56792;50.644;17.984;2022-10-14T07:37:48;99817.60;;;12.80
69590;BMP180;56792;50.644;17.984;2022-10-14T07:40:21;99827.60;;;13.02
69590;BMP180;56792;50.644;17.984;2022-10-14T07:42:53;99819.40;;;13.22
69590;BMP180;56792;50.644;17.984;2022-10-14T07:45:25;99817.60;;;13.40
69590;BMP180;56792;50.644;17.984;2022-10-14T07:47:57;99820.60;;;13.50
69590;BMP180;56792;50.644;17.984;2022-10-14T07:50:29;99821.60;;;13.60
69590;BMP180;56792;50.644;17.984;2022-10-14T07:53:01;99823.20;;;13.70
69590;BMP180;56792;50.644;17.984;2022-10-14T07:55:34;99824.00;;;13.80
69590;BMP180;56792;50.644;17.984;2022-10-14T07:58:06;99821.20;;;13.90
69590;BMP180;56792;50.644;17.984;2022-10-14T08:00:39;99817.60;;;14.20
69590;BMP180;56792;50.644;17.984;2022-10-14T08:03:11;99818.40;;;14.40
69590;BMP180;56792;50.644;17.984;2022-10-14T08:05:44;99820.20;;;14.76
69590;BMP180;56792;50.644;17.984;2022-10-14T08:08:17;99815.60;;;15.08
69590;BMP180;56792;50.644;17.984;2022-10-14T08:11:00;99817.60;;;15.30
69590;BMP180;56792;50.644;17.984;2022-10-14T08:13:32;99814.40;;;15.50
69590;BMP180;56792;50.644;17.984;2022-10-14T08:16:13;99813.80;;;15.70
69590;BMP180;56792;50.644;17.984;2022-10-14T08:18:46;99824.00;;;16.00
69590;BMP180;56792;50.644;17.984;2022-10-14T08:21:19;99819.20;;;16.20
69590;BMP180;56792;50.644;17.984;2022-10-14T08:23:52;99822.40;;;16.12
69590;BMP180;56792;50.644;17.984;2022-10-14T08:26:30;99825.80;;;16.40
69590;BMP180;56792;50.644;17.984;2022-10-14T08:29:06;99825.00;;;16.60
69590;BMP180;56792;50.644;17.984;2022-10-14T08:31:39;99819.00;;;16.80
69590;BMP180;56792;50.644;17.984;2022-10-14T08:34:12;99821.80;;;17.00
69590;BMP180;56792;50.644;17.984;2022-10-14T08:36:44;99823.60;;;16.90
69590;BMP180;56792;50.644;17.984;2022-10-14T08:39:17;99824.80;;;17.10
69590;BMP180;56792;50.644;17.984;2022-10-14T08:42:15;99821.00;;;17.20
69590;BMP180;56792;50.644;17.984;2022-10-14T08:44:54;99822.60;;;17.34
69590;BMP180;56792;50.644;17.984;2022-10-14T08:47:37;99826.40;;;17.42
69590;BMP180;56792;50.644;17.984;2022-10-14T08:50:22;99819.60;;;17.68
69590;BMP180;56792;50.644;17.984;2022-10-14T08:53:01;99813.40;;;17.80
69590;BMP180;56792;50.644;17.984;2022-10-14T08:55:40;99810.40;;;17.80
69590;BMP180;56792;50.644;17.984;2022-10-14T08:58:22;99807.00;;;17.98
69590;BMP180;56792;50.644;17.984;2022-10-14T09:00:56;99812.60;;;18.12
69590;BMP180;56792;50.644;17.984;2022-10-14T09:03:32;99808.40;;;18.40
69590;BMP180;56792;50.644;17.984;2022-10-14T09:06:12;99809.80;;;18.80
69590;BMP180;56792;50.644;17.984;2022-10-14T09:08:49;99814.80;;;18.90
69590;BMP180;56792;50.644;17.984;2022-10-14T09:11:24;99820.20;;;19.16
69590;BMP180;56792;50.644;17.984;2022-10-14T09:14:00;99811.20;;;19.48
69590;BMP180;56792;50.644;17.984;2022-10-14T09:16:37;99810.80;;;19.92
69590;BMP180;56792;50.644;17.984;2022-10-14T09:19:25;99814.20;;;20.66
69590;BMP180;56792;50.644;17.984;2022-10-14T09:22:02;99814.00;;;21.22
69590;BMP180;56792;50.644;17.984;2022-10-14T09:24:41;99816.00;;;22.52
69590;BMP180;56792;50.644;17.984;2022-10-14T09:27:20;99824.20;;;23.76
69590;BMP180;56792;50.644;17.984;2022-10-14T09:29:55;99819.00;;;24.70
69590;BMP180;56792;50.644;17.984;2022-10-14T09:32:34;99817.20;;;25.54
69590;BMP180;56792;50.644;17.984;2022-10-14T09:35:19;99821.20;;;26.32
69590;BMP180;56792;50.644;17.984;2022-10-14T09:37:53;99825.40;;;27.08
69590;BMP180;56792;50.644;17.984;2022-10-14T09:40:31;99829.60;;;27.64
69590;BMP180;56792;50.644;17.984;2022-10-14T09:43:13;99828.20;;;28.16
69590;BMP180;56792;50.644;17.984;2022-10-14T09:45:57;99835.00;;;28.88
69590;BMP180;56792;50.644;17.984;2022-10-14T09:48:38;99832.20;;;29.26
69590;BMP180;56792;50.644;17.984;2022-10-14T09:51:22;99833.80;;;29.70
69590;BMP180;56792;50.644;17.984;2022-10-14T09:53:57;99832.60;;;29.94
69590;BMP180;56792;50.644;17.984;2022-10-14T09:56:36;99837.80;;;30.20
69590;BMP180;56792;50.644;17.984;2022-10-14T09:59:19;99838.80;;;30.60
69590;BMP180;56792;50.644;17.984;2022-10-14T10:01:55;99837.60;;;30.90
69590;BMP180;56792;50.644;17.984;2022-10-14T10:04:40;99836.00;;;31.30
69590;BMP180;56792;50.644;17.984;2022-10-14T10:07:31;99840.20;;;31.72
69590;BMP180;56792;50.644;17.984;2022-10-14T10:10:20;99840.00;;;32.10
69590;BMP180;56792;50.644;17.984;2022-10-14T10:12:53;99845.20;;;32.88
69590;BMP180;56792;50.644;17.984;2022-10-14T10:15:25;99846.00;;;32.92
69590;BMP180;56792;50.644;17.984;2022-10-14T10:18:00;99850.40;;;32.62
69590;BMP180;56792;50.644;17.984;2022-10-14T10:20:33;99848.40;;;33.12
69590;BMP180;56792;50.644;17.984;2022-10-14T10:23:24;99845.80;;;33.50
69590;BMP180;56792;50.644;17.984;2022-10-14T10:25:58;99843.60;;;33.94
69590;BMP180;56792;50.644;17.984;2022-10-14T10:28:48;99840.60;;;34.32
69590;BMP180;56792;50.644;17.984;2022-10-14T10:31:53;99839.80;;;34.42
69590;BMP180;56792;50.644;17.984;2022-10-14T10:35:16;99835.40;;;34.70
69590;BMP180;56792;50.644;17.984;2022-10-14T10:38:05;99834.80;;;34.80
69590;BMP180;56792;50.644;17.984;2022-10-14T10:40:59;99830.40;;;35.20
69590;BMP180;56792;50.644;17.984;2022-10-14T10:43:55;99831.00;;;35.62
69590;BMP180;56792;50.644;17.984;2022-10-14T10:47:03;99827.00;;;35.82
69590;BMP180;56792;50.644;17.984;2022-10-14T10:50:28;99827.40;;;36.20
69590;BMP180;56792;50.644;17.984;2022-10-14T10:56:40;99823.60;;;36.18
69590;BMP180;56792;50.644;17.984;2022-10-14T10:59:33;99824.00;;;35.84
69590;BMP180;56792;50.644;17.984;2022-10-14T11:02:51;99817.00;;;35.40
69590;BMP180;56792;50.644;17.984;2022-10-14T11:05:44;99813.40;;;35.70
69590;BMP180;56792;50.644;17.984;2022-10-14T11:08:48;99821.00;;;35.58
69590;BMP180;56792;50.644;17.984;2022-10-14T11:11:53;99815.80;;;35.80
69590;BMP180;56792;50.644;17.984;2022-10-14T11:17:56;99802.00;;;36.10
69590;BMP180;56792;50.644;17.984;2022-10-14T11:20:41;99803.00;;;36.86
69590;BMP180;56792;50.644;17.984;2022-10-14T11:26:55;99797.20;;;37.64
69590;BMP180;56792;50.644;17.984;2022-10-14T11:29:53;99796.60;;;37.40
69590;BMP180;56792;50.644;17.984;2022-10-14T11:32:45;99794.80;;;37.50
69590;BMP180;56792;50.644;17.984;2022-10-14T11:35:33;99795.20;;;38.02
69590;BMP180;56792;50.644;17.984;2022-10-14T11:38:42;99797.60;;;38.14
69590;BMP180;56792;50.644;17.984;2022-10-14T11:41:32;99792.40;;;37.80
69590;BMP180;56792;50.644;17.984;2022-10-14T11:44:14;99789.40;;;38.34
69590;BMP180;56792;50.644;17.984;2022-10-14T11:46:54;99784.40;;;39.06
69590;BMP180;56792;50.644;17.984;2022-10-14T11:49:32;99784.80;;;39.18
69590;BMP180;56792;50.644;17.984;2022-10-14T11:52:13;99783.20;;;39.30
69590;BMP180;56792;50.644;17.984;2022-10-14T11:54:54;99781.20;;;38.78
69590;BMP180;56792;50.644;17.984;2022-10-14T11:57:34;99778.40;;;38.04
69590;BMP180;56792;50.644;17.984;2022-10-14T12:00:15;99775.80;;;38.10
69590;BMP180;56792;50.644;17.984;2022-10-14T12:02:57;99779.20;;;38.30
69590;BMP180;56792;50.644;17.984;2022-10-14T12:05:45;99769.80;;;38.00
69590;BMP180;56792;50.644;17.984;2022-10-14T12:08:23;99772.00;;;38.30
69590;BMP180;56792;50.644;17.984;2022-10-14T12:11:08;99768.20;;;38.60
69590;BMP180;56792;50.644;17.984;2022-10-14T12:13:46;99768.20;;;39.10
69590;BMP180;56792;50.644;17.984;2022-10-14T12:16:23;99766.80;;;39.24
69590;BMP180;56792;50.644;17.984;2022-10-14T12:18:57;99765.40;;;39.30
69590;BMP180;56792;50.644;17.984;2022-10-14T12:21:39;99761.40;;;39.14
69590;BMP180;56792;50.644;17.984;2022-10-14T12:24:19;99756.80;;;39.30
69590;BMP180;56792;50.644;17.984;2022-10-14T12:26:55;99760.20;;;39.10
69590;BMP180;56792;50.644;17.984;2022-10-14T12:29:34;99761.00;;;37.10
69590;BMP180;56792;50.644;17.984;2022-10-14T12:32:24;99759.60;;;35.12
69590;BMP180;56792;50.644;17.984;2022-10-14T12:34:57;99756.60;;;32.94
69590;BMP180;56792;50.644;17.984;2022-10-14T12:37:53;99746.00;;;32.86
69590;BMP180;56792;50.644;17.984;2022-10-14T12:40:33;99747.20;;;33.70
69590;BMP180;56792;50.644;17.984;2022-10-14T12:43:28;99752.60;;;34.50
69590;BMP180;56792;50.644;17.984;2022-10-14T12:46:15;99744.40;;;34.06
69590;BMP180;56792;50.644;17.984;2022-10-14T12:48:52;99748.20;;;31.74
69590;BMP180;56792;50.644;17.984;2022-10-14T12:51:25;99743.80;;;30.18
69590;BMP180;56792;50.644;17.984;2022-10-14T12:54:06;99743.40;;;29.04
69590;BMP180;56792;50.644;17.984;2022-10-14T12:56:54;99742.60;;;28.26
69590;BMP180;56792;50.644;17.984;2022-10-14T12:59:31;99736.40;;;27.60
69590;BMP180;56792;50.644;17.984;2022-10-14T13:02:21;99738.00;;;27.12
69590;BMP180;56792;50.644;17.984;2022-10-14T13:04:57;99741.40;;;26.38
69590;BMP180;56792;50.644;17.984;2022-10-14T13:07:42;99735.60;;;25.86
69590;BMP180;56792;50.644;17.984;2022-10-14T13:11:06;99733.40;;;24.98
69590;BMP180;56792;50.644;17.984;2022-10-14T13:13:59;99732.60;;;24.28
69590;BMP180;56792;50.644;17.984;2022-10-14T13:19:52;99728.20;;;23.14
69590;BMP180;56792;50.644;17.984;2022-10-14T13:22:51;99730.20;;;22.90
69590;BMP180;56792;50.644;17.984;2022-10-14T13:25:32;99727.40;;;22.70
69590;BMP180;56792;50.644;17.984;2022-10-14T13:28:25;99725.80;;;22.30
69590;BMP180;56792;50.644;17.984;2022-10-14T13:31:09;99726.40;;;22.20
69590;BMP180;56792;50.644;17.984;2022-10-14T13:33:51;99724.80;;;21.90
69590;BMP180;56792;50.644;17.984;2022-10-14T13:36:35;99722.40;;;21.70
69590;BMP180;56792;50.644;17.984;2022-10-14T13:39:09;99720.40;;;21.50
69590;BMP180;56792;50.644;17.984;2022-10-14T13:41:44;99720.80;;;21.30
69590;BMP180;56792;50.644;17.984;2022-10-14T13:44:20;99717.40;;;21.18
69590;BMP180;56792;50.644;17.984;2022-10-14T13:46:53;99714.60;;;21.00
69590;BMP180;56792;50.644;17.984;2022-10-14T13:49:32;99715.80;;;20.88
69590;BMP180;56792;50.644;17.984;2022-10-14T13:52:15;99716.40;;;20.70
69590;BMP180;56792;50.644;17.984;2022-10-14T13:54:48;99715.00;;;20.50
69590;BMP180;56792;50.644;17.984;2022-10-14T13:57:35;99714.40;;;20.30
69590;BMP180;56792;50.644;17.984;2022-10-14T14:00:27;99709.20;;;20.20
69590;BMP180;56792;50.644;17.984;2022-10-14T14:03:02;99705.80;;;20.00
69590;BMP180;56792;50.644;17.984;2022-10-14T14:05:43;99703.80;;;19.90
69590;BMP180;56792;50.644;17.984;2022-10-14T14:08:23;99703.20;;;19.80
69590;BMP180;56792;50.644;17.984;2022-10-14T14:11:03;99697.20;;;19.70
69590;BMP180;56792;50.644;17.984;2022-10-14T14:13:51;99696.60;;;19.60
69590;BMP180;56792;50.644;17.984;2022-10-14T14:16:26;99695.40;;;19.50
69590;BMP180;56792;50.644;17.984;2022-10-14T14:19:00;99694.80;;;19.40
69590;BMP180;56792;50.644;17.984;2022-10-14T14:21:32;99694.40;;;19.40
69590;BMP180;56792;50.644;17.984;2022-10-14T14:24:17;99693.60;;;19.40
69590;BMP180;56792;50.644;17.984;2022-10-14T14:27:02;99695.40;;;19.30
69590;BMP180;56792;50.644;17.984;2022-10-14T14:29:39;99694.40;;;19.20
69590;BMP180;56792;50.644;17.984;2022-10-14T14:32:17;99695.20;;;19.12
69590;BMP180;56792;50.644;17.984;2022-10-14T14:34:51;99695.40;;;19.10
69590;BMP180;56792;50.644;17.984;2022-10-14T14:37:30;99688.00;;;19.00
69590;BMP180;56792;50.644;17.984;2022-10-14T14:40:05;99682.80;;;18.90
69590;BMP180;56792;50.644;17.984;2022-10-14T14:42:42;99681.40;;;18.80
69590;BMP180;56792;50.644;17.984;2022-10-14T14:45:20;99686.60;;;18.70
69590;BMP180;56792;50.644;17.984;2022-10-14T14:48:04;99684.40;;;18.60
69590;BMP180;56792;50.644;17.984;2022-10-14T14:50:41;99685.40;;;18.50
69590;BMP180;56792;50.644;17.984;2022-10-14T14:53:19;99685.80;;;18.40
69590;BMP180;56792;50.644;17.984;2022-10-14T14:56:06;99681.80;;;18.40
69590;BMP180;56792;50.644;17.984;2022-10-14T14:58:48;99683.80;;;18.30
69590;BMP180;56792;50.644;17.984;2022-10-14T15:01:26;99673.60;;;18.22
69590;BMP180;56792;50.644;17.984;2022-10-14T15:04:03;99671.80;;;18.20
69590;BMP180;56792;50.644;17.984;2022-10-14T15:06:37;99671.80;;;18.16
69590;BMP180;56792;50.644;17.984;2022-10-14T15:09:16;99666.00;;;18.10
69590;BMP180;56792;50.644;17.984;2022-10-14T15:11:54;99664.60;;;18.00
69590;BMP180;56792;50.644;17.984;2022-10-14T15:14:43;99664.00;;;18.00
69590;BMP180;56792;50.644;17.984;2022-10-14T15:17:35;99664.60;;;18.00
69590;BMP180;56792;50.644;17.984;2022-10-14T15:20:31;99663.20;;;18.00
69590;BMP180;56792;50.644;17.984;2022-10-14T15:23:56;99662.60;;;17.90